OIIE/IKA METAR and TAF weather

Enter ICAO airport designator
Station Type Date Time Source
OIIE METAR 2022/07/03 15:00 UTC NOAA

OIIE 031500Z 31022KT 4000 SA DU NSC 29/09 Q1003


Station Type Date Time Source
OIIE Decoded METAR 2022/07/03 15:00 UTC NOAA

Station name not available
Jul 03, 2022 - 11:00 AM EDT / 2022.07.03 1500 UTC
Wind: from the NW (310 degrees) at 25 MPH (22 KT):0
Visibility: 2 mile(s):0
Weather: sand; widespread dust
Temperature: 84 F (29 C)
Dew Point: 48 F (9 C)
Relative Humidity: 28%
Pressure (altimeter): 29.62 in. Hg (1003 hPa)
ob: OIIE 031500Z 31022KT 4000 SA DU NSC 29/09 Q1003
cycle: 15

Station Type Date Time Source
OIIE TAF 2022/07/03 12:00 UTC NOAA

TAF OIIE 031130Z 0312/0418 35014KT 8000 NSC
TEMPO 0315/0324 30018G28KT 3000 SA NSC

Example: see airport list